Austin, Texas
Traffic Map
Current Weather Conditions
Austin, Texas
Clear
Clear
78°
Feels Like: 78°
Wind Chill: 78° Ceiling: Unl
Heat Index: 78° Visibility: 10mi
Dew Point: 48° Wind: 7mph
Humidity: 35% Direction: ° ()
Pressure: 29.72in Gusts: 0mph
Raw Report DataKATT 231651Z AUTO VRB06KT 10SM CLR 26/09 A2972 RMK AO2 SLP053 T02560089
Traffic Incident Summary
Active as of:
Severity:
Category:
InformationThere was an issue retrieving the traffic information for this location. Please try a different location or try again shortly.
Advertisements
Track Severe Weather on mobile